createdAt,value
2018-05-29T00:00:56.325Z,18.97
2018-05-29T00:03:23.771Z,17.67
2018-05-29T00:05:51.162Z,32.20
2018-05-29T00:08:18.580Z,17.10
2018-05-29T00:10:46.059Z,22.20
2018-05-29T00:13:13.514Z,17.60
2018-05-29T00:15:40.908Z,19.17
2018-05-29T00:18:08.418Z,15.50
2018-05-29T00:20:35.828Z,16.63
2018-05-29T00:23:03.254Z,16.83
2018-05-29T00:25:30.677Z,22.30
2018-05-29T00:27:58.144Z,18.50
2018-05-29T00:30:25.593Z,22.43
2018-05-29T00:32:53.011Z,17.10
2018-05-29T00:35:20.508Z,15.60
2018-05-29T00:37:47.947Z,15.90
2018-05-29T00:40:15.342Z,16.07
2018-05-29T00:42:42.781Z,18.93
2018-05-29T00:45:10.173Z,16.47
2018-05-29T00:47:37.578Z,15.00
2018-05-29T00:50:05.054Z,18.53
2018-05-29T00:52:32.525Z,16.27
2018-05-29T00:55:11.659Z,19.30
2018-05-29T00:57:39.053Z,14.50
2018-05-29T01:00:06.464Z,14.40
2018-05-29T01:02:33.905Z,14.87
2018-05-29T01:05:01.307Z,20.37
2018-05-29T01:07:28.701Z,13.43
2018-05-29T01:09:56.169Z,14.73
2018-05-29T01:12:24.360Z,15.13
2018-05-29T01:14:51.803Z,14.77
2018-05-29T01:17:19.201Z,13.07
2018-05-29T01:19:46.630Z,15.50
2018-05-29T01:22:14.093Z,13.73
2018-05-29T01:24:41.505Z,14.20
2018-05-29T01:27:08.905Z,17.60
2018-05-29T01:29:36.304Z,14.73
2018-05-29T01:32:03.799Z,18.83
2018-05-29T01:34:31.240Z,13.13
2018-05-29T01:36:58.711Z,12.27
2018-05-29T01:39:26.172Z,16.77
2018-05-29T01:41:53.573Z,20.67
2018-05-29T01:44:21.087Z,13.43
2018-05-29T01:46:48.490Z,13.60
2018-05-29T01:49:15.948Z,12.70
2018-05-29T01:51:43.464Z,12.73
2018-05-29T01:54:11.120Z,14.43
2018-05-29T01:56:38.516Z,17.33
2018-05-29T01:59:06.025Z,13.80
2018-05-29T02:01:33.433Z,16.90
2018-05-29T02:04:00.952Z,14.97
2018-05-29T02:06:28.349Z,15.30
2018-05-29T02:08:55.753Z,13.73
2018-05-29T02:11:23.208Z,14.33
2018-05-29T02:13:50.637Z,17.67
2018-05-29T02:16:18.034Z,19.00
2018-05-29T02:18:45.439Z,17.03
2018-05-29T02:21:12.833Z,14.20
2018-05-29T02:23:40.232Z,22.93
2018-05-29T02:26:07.659Z,14.00
2018-05-29T02:28:35.144Z,23.13
2018-05-29T02:31:02.557Z,14.13
2018-05-29T02:33:29.960Z,13.70
2018-05-29T02:35:57.357Z,17.30
2018-05-29T02:38:24.831Z,15.00
2018-05-29T02:40:52.302Z,14.67
2018-05-29T02:43:19.703Z,17.50
2018-05-29T02:45:47.202Z,18.20
2018-05-29T02:48:14.607Z,15.63
2018-05-29T02:50:42.010Z,15.60
2018-05-29T02:53:09.470Z,18.57
2018-05-29T02:55:36.926Z,17.20
2018-05-29T02:58:04.322Z,19.83
2018-05-29T03:00:31.725Z,15.33
2018-05-29T03:02:59.218Z,14.87
2018-05-29T03:05:26.649Z,16.17
2018-05-29T03:07:54.132Z,14.80
2018-05-29T03:10:21.508Z,15.20
2018-05-29T03:12:49.021Z,15.33
2018-05-29T03:15:16.595Z,15.67
2018-05-29T03:17:43.999Z,16.33
2018-05-29T03:20:11.431Z,15.20
2018-05-29T03:22:38.848Z,15.03
2018-05-29T03:25:06.330Z,19.90
2018-05-29T03:27:34.251Z,14.73
2018-05-29T03:30:01.644Z,17.07
2018-05-29T03:32:29.057Z,19.57
2018-05-29T03:34:56.457Z,19.77
2018-05-29T03:37:23.860Z,21.10
2018-05-29T03:39:51.288Z,15.70
2018-05-29T03:42:18.698Z,15.97
2018-05-29T03:44:46.668Z,15.53
2018-05-29T03:47:14.077Z,16.40
2018-05-29T03:49:41.492Z,18.80
2018-05-29T03:52:08.949Z,16.83
2018-05-29T03:54:36.725Z,19.60
2018-05-29T03:57:04.176Z,15.40
2018-05-29T03:59:31.577Z,18.93
2018-05-29T04:01:58.978Z,15.30
2018-05-29T04:04:26.378Z,15.30
2018-05-29T04:06:53.810Z,22.07
2018-05-29T04:09:21.206Z,16.13
2018-05-29T04:11:48.616Z,16.10
2018-05-29T04:14:16.036Z,16.30
2018-05-29T04:16:43.431Z,15.37
2018-05-29T04:19:10.831Z,17.87
2018-05-29T04:21:38.366Z,16.10
2018-05-29T04:24:05.789Z,20.20
2018-05-29T04:26:33.187Z,15.17
2018-05-29T04:29:00.594Z,15.33
2018-05-29T04:31:27.990Z,21.53
2018-05-29T04:33:55.394Z,15.10
2018-05-29T04:36:22.786Z,15.17
2018-05-29T04:38:50.237Z,17.30
2018-05-29T04:41:17.651Z,24.17
2018-05-29T04:43:45.175Z,17.00
2018-05-29T04:46:12.645Z,16.17
2018-05-29T04:48:40.065Z,18.10
2018-05-29T04:51:07.461Z,16.30
2018-05-29T04:53:34.996Z,14.77
2018-05-29T04:56:02.374Z,15.37
2018-05-29T04:58:29.882Z,20.50
2018-05-29T05:00:57.340Z,15.90
2018-05-29T05:03:24.758Z,22.10
2018-05-29T05:05:52.236Z,14.67
2018-05-29T05:08:19.648Z,17.30
2018-05-29T05:10:47.077Z,15.40
2018-05-29T05:13:14.523Z,17.43
2018-05-29T05:15:41.987Z,16.83
2018-05-29T05:18:09.401Z,15.50
2018-05-29T05:20:36.893Z,14.93
2018-05-29T05:23:04.302Z,14.67
2018-05-29T05:25:31.729Z,15.90
2018-05-29T05:27:59.173Z,24.87
2018-05-29T05:30:26.619Z,14.00
2018-05-29T05:32:54.070Z,13.57
2018-05-29T05:35:21.468Z,13.63
2018-05-29T05:37:48.873Z,12.73
2018-05-29T05:40:16.287Z,13.97
2018-05-29T05:42:43.690Z,13.33
2018-05-29T05:45:11.097Z,21.20
2018-05-29T05:47:38.567Z,12.53
2018-05-29T05:50:06.039Z,12.63
2018-05-29T05:52:33.425Z,14.20
2018-05-29T05:55:00.933Z,14.50
2018-05-29T05:57:28.332Z,13.60
2018-05-29T05:59:55.733Z,10.40
2018-05-29T06:02:23.142Z,12.50
2018-05-29T06:04:50.557Z,22.07
2018-05-29T06:07:18.008Z,25.53
2018-05-29T06:09:45.411Z,15.93
2018-05-29T06:12:12.826Z,28.83
2018-05-29T06:14:40.297Z,31.57
2018-05-29T06:17:07.742Z,30.43
2018-05-29T06:19:35.197Z,41.00
2018-05-29T06:22:02.597Z,43.03
2018-05-29T06:24:30.018Z,49.97
2018-05-29T06:26:57.581Z,55.33
2018-05-29T06:29:25.153Z,49.53
2018-05-29T06:31:52.645Z,43.13
2018-05-29T06:34:20.097Z,42.33
2018-05-29T06:36:47.614Z,67.57
2018-05-29T06:39:15.908Z,59.97
2018-05-29T06:41:43.325Z,41.43
2018-05-29T06:44:10.728Z,32.70
2018-05-29T06:46:38.125Z,22.27
2018-05-29T06:49:05.539Z,16.60
2018-05-29T06:51:32.927Z,17.00
2018-05-29T06:54:00.421Z,11.60
2018-05-29T06:56:27.880Z,14.83
2018-05-29T06:58:55.284Z,22.10
2018-05-29T07:01:22.685Z,10.57
2018-05-29T07:03:50.130Z,14.17
2018-05-29T07:06:17.478Z,14.93
2018-05-29T07:08:44.965Z,18.67
2018-05-29T07:11:12.361Z,11.60
2018-05-29T07:13:39.782Z,19.30
2018-05-29T07:16:07.245Z,19.27
2018-05-29T07:18:34.641Z,20.13
2018-05-29T07:21:02.054Z,13.57
2018-05-29T07:23:29.453Z,12.20
2018-05-29T07:25:56.974Z,20.63
2018-05-29T07:28:24.432Z,15.70
2018-05-29T07:30:52.830Z,11.40
2018-05-29T07:33:20.263Z,9.80
2018-05-29T07:35:47.717Z,11.73
2018-05-29T07:38:15.481Z,13.40
2018-05-29T07:40:42.881Z,10.80
2018-05-29T07:43:10.322Z,16.47
2018-05-29T07:45:37.823Z,10.63
2018-05-29T07:48:05.219Z,9.37
2018-05-29T07:50:32.636Z,11.60
2018-05-29T07:53:00.092Z,12.63
2018-05-29T07:55:27.497Z,9.40
2018-05-29T07:57:54.894Z,13.17
2018-05-29T08:00:22.301Z,22.27
2018-05-29T08:02:49.688Z,15.80
2018-05-29T08:05:17.118Z,11.63
2018-05-29T08:07:44.498Z,19.33
2018-05-29T08:10:11.925Z,19.10
2018-05-29T08:12:39.339Z,31.90
2018-05-29T08:15:06.833Z,25.53
2018-05-29T08:17:34.293Z,15.90
2018-05-29T08:20:01.740Z,14.60
2018-05-29T08:22:29.198Z,14.30
2018-05-29T08:24:56.600Z,18.47
2018-05-29T08:27:24.009Z,14.67
2018-05-29T08:29:51.409Z,20.00
2018-05-29T08:32:18.867Z,21.53
2018-05-29T08:34:46.262Z,11.63
2018-05-29T08:37:13.661Z,12.97
2018-05-29T08:39:41.114Z,11.37
2018-05-29T08:42:08.450Z,9.73
2018-05-29T08:44:35.860Z,11.83
2018-05-29T08:47:03.249Z,15.67
2018-05-29T08:49:30.654Z,18.47
2018-05-29T08:51:58.050Z,8.77
2018-05-29T08:54:25.493Z,11.90
2018-05-29T08:56:52.955Z,10.03
2018-05-29T08:59:20.426Z,8.83
2018-05-29T09:01:47.905Z,23.17
2018-05-29T09:04:15.321Z,12.03
2018-05-29T09:06:42.718Z,17.70
2018-05-29T09:09:10.115Z,8.27
2018-05-29T09:11:37.534Z,9.43
2018-05-29T09:14:04.951Z,15.00
2018-05-29T09:16:32.345Z,24.63
2018-05-29T09:18:59.783Z,8.53
2018-05-29T09:21:27.126Z,9.77
2018-05-29T09:23:54.534Z,14.13
2018-05-29T09:26:22.005Z,10.23
2018-05-29T09:28:49.409Z,14.87
2018-05-29T09:31:16.828Z,10.77
2018-05-29T09:33:44.241Z,11.17
2018-05-29T09:36:11.711Z,23.80
2018-05-29T09:38:39.094Z,20.47
2018-05-29T09:41:06.525Z,30.83
2018-05-29T09:43:33.969Z,23.43
2018-05-29T09:46:01.454Z,27.80
2018-05-29T09:48:28.823Z,10.80
2018-05-29T09:50:56.224Z,10.53
2018-05-29T09:53:23.649Z,10.97
2018-05-29T09:55:51.053Z,7.80
2018-05-29T09:58:18.444Z,8.50
2018-05-29T10:00:45.846Z,9.80
2018-05-29T10:03:13.337Z,8.37
2018-05-29T10:05:40.713Z,9.60
2018-05-29T10:08:08.156Z,13.80
2018-05-29T10:10:35.565Z,10.03
2018-05-29T10:13:02.974Z,8.80
2018-05-29T10:15:30.365Z,7.87
2018-05-29T10:17:57.861Z,7.50
2018-05-29T10:20:25.261Z,8.30
2018-05-29T10:22:52.662Z,8.00
2018-05-29T10:25:20.134Z,6.70
2018-05-29T10:27:47.589Z,8.27
2018-05-29T10:30:14.985Z,8.27
2018-05-29T10:32:42.412Z,9.50
2018-05-29T10:35:09.801Z,11.63
2018-05-29T10:37:37.231Z,8.63
2018-05-29T10:40:04.634Z,59.30
2018-05-29T10:42:32.029Z,8.73
2018-05-29T10:44:59.509Z,7.80
2018-05-29T10:47:26.945Z,8.77
2018-05-29T10:49:54.361Z,7.87
2018-05-29T10:52:21.750Z,9.27
2018-05-29T10:54:49.217Z,10.47
2018-05-29T10:57:16.702Z,10.10
2018-05-29T10:59:44.125Z,11.10
2018-05-29T11:02:11.517Z,9.23
2018-05-29T11:04:38.909Z,9.50
2018-05-29T11:07:06.292Z,10.87
2018-05-29T11:09:33.767Z,9.67
2018-05-29T11:12:01.150Z,10.27
2018-05-29T11:14:28.565Z,10.20
2018-05-29T11:16:56.020Z,24.70
2018-05-29T11:19:23.433Z,17.07
2018-05-29T11:21:50.825Z,20.13
2018-05-29T11:24:18.224Z,14.13
2018-05-29T11:26:45.665Z,9.50
2018-05-29T11:29:13.107Z,9.23
2018-05-29T11:31:40.597Z,11.83
2018-05-29T11:34:07.983Z,10.13
2018-05-29T11:36:35.477Z,11.57
2018-05-29T11:39:02.873Z,32.60
2018-05-29T11:41:30.299Z,13.10
2018-05-29T11:43:57.758Z,8.40
2018-05-29T11:46:25.152Z,8.73
2018-05-29T11:48:52.561Z,13.17
2018-05-29T11:51:20.017Z,10.53
2018-05-29T11:53:47.403Z,8.37
2018-05-29T11:56:14.849Z,13.60
2018-05-29T11:58:42.217Z,8.97
2018-05-29T12:01:09.749Z,8.10
2018-05-29T12:03:37.959Z,9.67
2018-05-29T12:06:05.418Z,11.73
2018-05-29T12:08:32.829Z,10.33
2018-05-29T12:11:00.245Z,8.00
2018-05-29T12:13:27.637Z,10.53
2018-05-29T12:15:55.104Z,11.40
2018-05-29T12:18:22.685Z,13.80
2018-05-29T12:20:50.114Z,9.77
2018-05-29T12:23:17.506Z,7.97
2018-05-29T12:25:44.951Z,9.80
2018-05-29T12:28:12.443Z,7.20
2018-05-29T12:30:39.837Z,9.60
2018-05-29T12:33:07.237Z,10.00
2018-05-29T12:35:34.639Z,18.77
2018-05-29T12:38:02.017Z,9.20
2018-05-29T12:40:29.596Z,10.73
2018-05-29T12:42:57.000Z,7.90
2018-05-29T12:45:24.400Z,7.17
2018-05-29T12:47:51.829Z,10.70
2018-05-29T12:50:19.235Z,12.03
2018-05-29T12:52:46.661Z,7.83
2018-05-29T12:55:14.122Z,8.47
2018-05-29T12:57:41.577Z,13.50
2018-05-29T13:00:08.987Z,19.90
2018-05-29T13:02:36.413Z,13.47
2018-05-29T13:05:03.839Z,11.77
2018-05-29T13:07:31.249Z,11.30
2018-05-29T13:09:58.668Z,7.77
2018-05-29T13:12:26.049Z,12.43
2018-05-29T13:14:53.514Z,8.33
2018-05-29T13:17:20.893Z,15.57
2018-05-29T13:19:48.281Z,6.80
2018-05-29T13:22:15.796Z,9.10
2018-05-29T13:24:43.197Z,18.10
2018-05-29T13:27:10.649Z,6.97
2018-05-29T13:29:38.127Z,7.47
2018-05-29T13:32:05.573Z,12.80
2018-05-29T13:34:33.029Z,11.93
2018-05-29T13:37:00.437Z,16.03
2018-05-29T13:39:27.820Z,6.90
2018-05-29T13:41:55.242Z,11.73
2018-05-29T13:44:22.625Z,12.40
2018-05-29T13:46:50.100Z,6.83
2018-05-29T13:49:17.691Z,7.90
2018-05-29T13:51:45.117Z,7.73
2018-05-29T13:54:12.590Z,6.70
2018-05-29T13:56:39.981Z,6.33
2018-05-29T13:59:07.373Z,7.37
2018-05-29T14:01:34.857Z,15.10
2018-05-29T14:04:02.323Z,11.07
2018-05-29T14:06:29.709Z,8.53
2018-05-29T14:08:57.158Z,13.20
2018-05-29T14:11:24.585Z,6.37
2018-05-29T14:13:52.043Z,36.53
2018-05-29T14:16:19.517Z,6.00
2018-05-29T14:18:46.973Z,5.47
2018-05-29T14:21:14.377Z,7.13
2018-05-29T14:23:41.761Z,5.40
2018-05-29T14:26:09.223Z,5.73
2018-05-29T14:28:36.596Z,7.57
2018-05-29T14:31:04.133Z,16.37
2018-05-29T14:33:31.529Z,6.40
2018-05-29T14:35:58.935Z,33.77
2018-05-29T14:38:26.379Z,6.57
2018-05-29T14:40:53.759Z,10.60
2018-05-29T14:43:21.174Z,7.03
2018-05-29T14:45:48.635Z,7.70
2018-05-29T14:50:49.805Z,8.87
2018-05-29T14:53:17.234Z,19.03
2018-05-29T14:55:44.678Z,7.00
2018-05-29T14:58:12.163Z,6.63
2018-05-29T15:00:39.645Z,5.17
2018-05-29T15:03:07.021Z,7.27
2018-05-29T15:05:34.462Z,7.20
2018-05-29T15:08:01.850Z,6.43
2018-05-29T15:10:29.345Z,5.00
2018-05-29T15:12:56.805Z,5.83
2018-05-29T15:15:24.300Z,8.10
2018-05-29T15:17:51.750Z,11.13
2018-05-29T15:20:19.158Z,8.27
2018-05-29T15:22:46.569Z,8.20
2018-05-29T15:25:14.005Z,5.97
2018-05-29T15:27:41.389Z,5.63
2018-05-29T15:30:08.793Z,20.17
2018-05-29T15:32:36.281Z,6.20
2018-05-29T15:35:03.717Z,7.90
2018-05-29T15:37:31.109Z,7.57
2018-05-29T15:39:58.557Z,19.17
2018-05-29T15:42:25.954Z,10.23
2018-05-29T15:44:53.329Z,4.23
2018-05-29T15:47:20.737Z,11.50
2018-05-29T15:49:48.142Z,13.30
2018-05-29T15:52:15.597Z,9.83
2018-05-29T15:54:42.949Z,4.40
2018-05-29T15:57:10.354Z,5.00
2018-05-29T15:59:37.797Z,5.00
2018-05-29T16:02:05.269Z,8.47
2018-05-29T16:04:32.663Z,5.60
2018-05-29T16:07:00.077Z,5.63
2018-05-29T16:09:27.525Z,4.43
2018-05-29T16:11:54.922Z,6.60
2018-05-29T16:14:22.375Z,6.47
2018-05-29T16:16:49.758Z,10.73
2018-05-29T16:19:17.165Z,8.43
2018-05-29T16:21:44.609Z,6.37
2018-05-29T16:24:11.992Z,6.87
2018-05-29T16:26:39.491Z,11.70
2018-05-29T16:29:06.893Z,8.80
2018-05-29T16:31:34.340Z,6.13
2018-05-29T16:34:01.793Z,6.43
2018-05-29T16:36:29.190Z,9.80
2018-05-29T16:38:56.580Z,9.90
2018-05-29T16:41:24.067Z,5.63
2018-05-29T16:43:51.521Z,11.37
2018-05-29T16:46:18.978Z,8.03
2018-05-29T16:48:46.361Z,8.83
2018-05-29T16:51:13.809Z,9.27
2018-05-29T16:53:41.204Z,7.50
2018-05-29T16:56:08.728Z,3.83
2018-05-29T16:58:36.164Z,8.43
2018-05-29T17:01:03.583Z,13.23
2018-05-29T17:03:30.952Z,4.67
2018-05-29T17:05:58.373Z,14.93
2018-05-29T17:08:25.882Z,10.23
2018-05-29T17:10:53.269Z,7.23
2018-05-29T17:13:20.676Z,6.53
2018-05-29T17:15:48.072Z,4.70
2018-05-29T17:18:15.520Z,5.97
2018-05-29T17:20:42.965Z,4.70
2018-05-29T17:23:10.367Z,8.50
2018-05-29T17:25:37.740Z,3.40
2018-05-29T17:28:05.143Z,7.30
2018-05-29T17:30:32.555Z,3.73
2018-05-29T17:32:59.970Z,6.83
2018-05-29T17:35:27.494Z,20.73
2018-05-29T17:37:54.974Z,6.23
2018-05-29T17:40:22.431Z,3.63
2018-05-29T17:42:49.829Z,9.13
2018-05-29T17:45:17.209Z,7.83
2018-05-29T17:47:44.605Z,8.77
2018-05-29T17:50:12.054Z,10.33
2018-05-29T17:52:39.453Z,7.30
2018-05-29T17:55:06.842Z,4.60
2018-05-29T17:57:34.260Z,15.33
2018-05-29T18:00:02.665Z,4.00
2018-05-29T18:02:30.090Z,4.53
2018-05-29T18:04:57.478Z,5.33
2018-05-29T18:07:24.960Z,5.77
2018-05-29T18:09:52.442Z,3.47
2018-05-29T18:12:19.847Z,8.27
2018-05-29T18:14:47.232Z,4.40
2018-05-29T18:17:14.621Z,7.40
2018-05-29T18:19:42.045Z,10.43
2018-05-29T18:22:09.549Z,18.03
2018-05-29T18:24:36.953Z,6.60
2018-05-29T18:27:04.344Z,5.43
2018-05-29T18:29:31.814Z,11.70
2018-05-29T18:31:59.250Z,11.40
2018-05-29T18:34:26.705Z,13.77
2018-05-29T18:36:54.212Z,6.40
2018-05-29T18:39:21.656Z,8.93
2018-05-29T18:41:49.041Z,4.30
2018-05-29T18:44:16.451Z,15.50
2018-05-29T18:46:43.991Z,7.50
2018-05-29T18:49:11.539Z,10.30
2018-05-29T18:51:38.899Z,13.00
2018-05-29T18:54:06.450Z,5.30
2018-05-29T18:56:33.934Z,19.10
2018-05-29T18:59:01.340Z,12.20
2018-05-29T19:01:28.825Z,5.53
2018-05-29T19:03:56.233Z,19.63
2018-05-29T19:06:23.753Z,19.70
2018-05-29T19:08:51.202Z,7.60
2018-05-29T19:11:18.646Z,11.27
2018-05-29T19:13:46.108Z,5.30
2018-05-29T19:16:13.513Z,7.37
2018-05-29T19:18:40.926Z,5.80
2018-05-29T19:21:08.381Z,5.03
2018-05-29T19:23:35.855Z,9.37
2018-05-29T19:26:03.300Z,6.17
2018-05-29T19:28:30.716Z,7.07
2018-05-29T19:30:58.110Z,5.97
2018-05-29T19:33:25.515Z,5.97
2018-05-29T19:35:52.941Z,5.00
2018-05-29T19:38:20.461Z,5.10
2018-05-29T19:40:47.848Z,7.63
2018-05-29T19:43:15.237Z,7.57
2018-05-29T19:45:42.637Z,8.53
2018-05-29T19:48:10.033Z,7.27
2018-05-29T19:50:37.445Z,8.90
2018-05-29T19:53:04.862Z,14.87
2018-05-29T19:55:32.246Z,7.40
2018-05-29T19:57:59.758Z,5.93
2018-05-29T20:00:27.141Z,5.03
2018-05-29T20:02:54.556Z,16.10
2018-05-29T20:05:21.946Z,11.50
2018-05-29T20:07:49.353Z,6.63
2018-05-29T20:10:16.741Z,8.33
2018-05-29T20:12:44.150Z,13.20
2018-05-29T20:15:11.626Z,4.10
2018-05-29T20:17:39.020Z,8.47
2018-05-29T20:20:06.464Z,8.80
2018-05-29T20:22:33.855Z,11.47
2018-05-29T20:25:01.266Z,8.30
2018-05-29T20:27:28.656Z,16.07
2018-05-29T20:29:56.178Z,21.10
2018-05-29T20:32:23.555Z,8.53
2018-05-29T20:34:50.983Z,10.67
2018-05-29T20:37:18.413Z,14.27
2018-05-29T20:39:45.905Z,9.27
2018-05-29T20:42:13.377Z,8.10
2018-05-29T20:44:40.755Z,9.73
2018-05-29T20:47:08.158Z,21.67
2018-05-29T20:49:35.545Z,6.87
2018-05-29T20:52:03.077Z,14.67
2018-05-29T20:54:30.501Z,9.23
2018-05-29T20:56:57.885Z,9.40
2018-05-29T20:59:25.293Z,15.23
2018-05-29T21:01:52.687Z,9.87
2018-05-29T21:04:20.190Z,13.93
2018-05-29T21:06:47.571Z,8.43
2018-05-29T21:09:14.970Z,17.40
2018-05-29T21:11:42.388Z,16.63
2018-05-29T21:14:09.902Z,8.07
2018-05-29T21:16:37.285Z,10.23
2018-05-29T21:19:04.698Z,16.17
2018-05-29T21:21:32.176Z,7.67
2018-05-29T21:23:59.577Z,7.13
2018-05-29T21:26:26.989Z,8.20
2018-05-29T21:28:54.389Z,12.53
2018-05-29T21:31:21.790Z,15.90
2018-05-29T21:33:49.197Z,13.40
2018-05-29T21:36:16.602Z,10.17
2018-05-29T21:38:44.013Z,11.80
2018-05-29T21:41:11.505Z,6.60
2018-05-29T21:43:38.894Z,5.30
2018-05-29T21:46:06.302Z,13.33
2018-05-29T21:48:33.714Z,8.57
2018-05-29T21:51:01.145Z,8.20
2018-05-29T21:53:28.561Z,14.77
2018-05-29T21:55:56.037Z,7.43
2018-05-29T21:58:23.441Z,11.33
2018-05-29T22:00:50.853Z,10.80
2018-05-29T22:03:18.248Z,18.70
2018-05-29T22:05:45.668Z,4.77
2018-05-29T22:08:13.062Z,5.67
2018-05-29T22:10:40.466Z,13.63
2018-05-29T22:13:07.857Z,9.80
2018-05-29T22:15:35.281Z,11.07
2018-05-29T22:18:02.689Z,8.77
2018-05-29T22:20:30.116Z,9.40
2018-05-29T22:22:57.560Z,11.43
2018-05-29T22:25:24.955Z,11.53
2018-05-29T22:27:52.353Z,9.63
2018-05-29T22:30:19.780Z,16.80
2018-05-29T22:32:47.136Z,4.63
2018-05-29T22:35:14.649Z,7.77
2018-05-29T22:37:42.029Z,11.53
2018-05-29T22:40:09.522Z,15.27
2018-05-29T22:42:36.914Z,6.53
2018-05-29T22:45:04.314Z,17.37
2018-05-29T22:47:31.725Z,8.50
2018-05-29T22:49:59.181Z,6.23
2018-05-29T22:52:26.653Z,21.33
2018-05-29T22:54:54.043Z,6.23
2018-05-29T22:57:21.502Z,26.63
2018-05-29T22:59:48.981Z,11.33
2018-05-29T23:02:16.370Z,12.73
2018-05-29T23:04:43.869Z,13.37
2018-05-29T23:07:11.256Z,9.30
2018-05-29T23:09:38.679Z,11.40
2018-05-29T23:12:06.074Z,8.67
2018-05-29T23:14:33.461Z,10.53
2018-05-29T23:17:00.950Z,18.47
2018-05-29T23:19:28.357Z,11.00
2018-05-29T23:24:32.889Z,11.73
2018-05-29T23:27:00.288Z,13.50
2018-05-29T23:29:27.688Z,16.43
2018-05-29T23:31:55.081Z,13.47
2018-05-29T23:34:22.484Z,21.27
2018-05-29T23:36:49.873Z,15.90
2018-05-29T23:39:17.261Z,9.33
2018-05-29T23:41:44.747Z,10.07
2018-05-29T23:44:12.198Z,10.40
2018-05-29T23:46:39.603Z,12.10
2018-05-29T23:49:07.001Z,10.83
2018-05-29T23:51:34.410Z,9.63
2018-05-29T23:54:01.879Z,11.57
2018-05-29T23:56:29.293Z,9.07
2018-05-29T23:58:56.690Z,10.00
